Flight Track Log - Related Links

Times and Time Zones

All times are in EDT time to prevent confusion due to time zone crossing. See the AWE3899 flight status page for this flight to view local times or setup timezone preferences in your user account.

Time Position Orientation Groundspeed Altitude Reporting Facility
EDT Latitude Longitude Course Direction KTS MPH feet Rate Location/Type
07:57PM 34.8614 -77.6475 231° Southwest 177 204 3,900  Level Washington Center
07:58PM 34.6720 -77.8280 219° Southwest  Level FlightAware Approximate
07:58PM 34.8144 -77.7069 226° Southwest 155 178 6,100  Level Washington Center
07:59PM 34.6199 -77.9003 230° Southwest  Level FlightAware Approximate
07:59PM 34.7653 -77.7764 229° Southwest 221 254 8,800  Level Washington Center
08:00PM 34.5685 -77.9736 230° Southwest  Level FlightAware Approximate
08:00PM 34.7161 -77.8433 228° Southwest 253 291 10,900  Level Washington Center
08:01PM 34.5182 -78.0478 231° Southwest  Level FlightAware Approximate
08:01PM 34.6606 -77.9150 227° Southwest 278 320 13,200  Level Washington Center
08:02PM 34.4669 -78.1247 231° Southwest  Level FlightAware Approximate
08:02PM 34.6025 -77.9917 227° Southwest 299 344 15,400  Level Washington Center
08:03PM 34.5447 -78.0681 227° Southwest 309 356 16,000 176 Climbing Washington Center
08:05PM 34.4281 -78.2281 229° Southwest 329 379 15,900 -35 Descending Jacksonville Center
08:06PM 34.3664 -78.3069 227° Southwest 329 379 15,900  Level Jacksonville Center
08:07PM 34.3197 -78.3975 238° Southwest 329 379 15,900  Level Jacksonville Center
08:08PM 34.3108 -78.5061 264° West 316 364 15,900  Level Jacksonville Center
08:09PM 34.3042 -78.6169 266° West 326 375 15,900  Level Jacksonville Center
08:10PM 34.2975 -78.7278 266° West 332 382 15,900  Level Jacksonville Center
08:11PM 34.2886 -78.8364 264° West 332 382 15,900  Level Jacksonville Center
08:12PM 34.2817 -78.9422 265° West 332 382 15,900  Level Jacksonville Center
08:13PM 34.2725 -79.0506 264° West 332 382 15,900  Level Jacksonville Center
08:14PM 34.2653 -79.1614 266° West 332 382 15,900  Level Jacksonville Center
08:15PM 34.2914 -79.2658 287° West 320 368 15,900  Level Jacksonville Center
08:16PM 34.3297 -79.3675 295° West 320 368 15,900  Level Jacksonville Center
08:17PM 34.3675 -79.4539 298° West 325 374 15,900  Level Jacksonville Center
08:18PM 34.4058 -79.5581 294° West 330 380 15,900  Level Jacksonville Center
08:19PM 34.4436 -79.6522 296° West 330 380 15,900 -400 Level Jacksonville Center
08:20PM 34.4794 -79.7442 295° West 306 352 15,100 -850 Descending Jacksonville Center
08:21PM 34.5150 -79.8361 295° West 300 345 14,200 -850 Descending Jacksonville Center
08:22PM 34.5419 -79.9183 292° West 295 339 13,400 -850 Descending Jacksonville Center
08:23PM 34.5753 -80.0028 296° West 285 328 12,500 -777 Descending Jacksonville Center
08:25PM 34.6775 -80.1944 303° West 296 341 10,900 -508 Descending Atlanta Center
08:26PM 34.7194 -80.2683 305° West 294 338 10,900 -197 Level Atlanta Center
08:27PM 34.7744 -80.3644 305° West 296 341 10,500 -661 Descending Atlanta Center
08:28PM 34.8167 -80.4486 301° West 288 331 9,500 -984 Descending Atlanta Center
08:29PM 34.8606 -80.5228 306° West 276 318 8,500 -1,172 Descending Atlanta Center
08:30PM 34.8983 -80.6122 297° West 248 285 7,000 -1,200 Descending Atlanta Center
08:31PM 34.8789 -80.6586 243° Southwest 215 247 6,300 -569 Descending Atlanta Center
08:32PM 34.8497 -80.7333 245° Southwest 185 213 5,900 -443 Descending Atlanta Center
08:33PM 34.8342 -80.7769 247° West 183 211 5,400 -885 Descending Atlanta Center
08:34PM 34.8150 -80.8483 252° West 180 207 4,100 -703 Descending Atlanta Center
08:35PM 34.8456 -80.8928 310° West 205 236 3,900 -49 Descending Atlanta Center
08:36PM 34.8917 -80.9089 344° North 161 185 4,000  Climbing Atlanta Center
08:37PM 34.9400 -80.9147 354° North 170 196 3,900 -49 Descending Atlanta Center
08:38PM 34.9922 -80.9178 357° North 171 197 3,900  Level Atlanta Center
08:39PM 35.0383 -80.9236 354° North 171 197 3,900 -496 Level Atlanta Center
08:40PM 35.0864 -80.9269 357° North 174 200 2,900 -893 Descending Atlanta Center
08:41PM 35.1322 -80.9303 357° North 162 186 2,100 -787 Descending Atlanta Center

Login

Don't have an account? Register now (free) for customized features, flight alerts, and more!